sensor_id;sensor_type;location;lat;lon;timestamp;pressure;altitude;pressure_sealevel;temperature;humidity
41513;BME280;27244;59.940;30.280;2022-07-23T00:00:09;101238.41;;;25.22;53.15
41513;BME280;27244;59.940;30.280;2022-07-23T00:02:36;101239.22;;;25.22;52.82
41513;BME280;27244;59.940;30.280;2022-07-23T00:05:04;101240.47;;;25.21;53.15
41513;BME280;27244;59.940;30.280;2022-07-23T00:07:31;101237.19;;;25.23;52.96
41513;BME280;27244;59.940;30.280;2022-07-23T00:09:58;101242.03;;;25.22;53.07
41513;BME280;27244;59.940;30.280;2022-07-23T00:12:25;101248.47;;;25.23;53.21
41513;BME280;27244;59.940;30.280;2022-07-23T00:14:53;101250.50;;;25.22;53.01
41513;BME280;27244;59.940;30.280;2022-07-23T00:17:20;101251.31;;;25.23;53.08
41513;BME280;27244;59.940;30.280;2022-07-23T00:19:47;101248.94;;;25.21;52.95
41513;BME280;27244;59.940;30.280;2022-07-23T00:22:15;101261.81;;;25.22;52.76
41513;BME280;27244;59.940;30.280;2022-07-23T00:24:42;101244.97;;;25.19;52.89
41513;BME280;27244;59.940;30.280;2022-07-23T00:27:09;101252.09;;;25.23;53.16
41513;BME280;27244;59.940;30.280;2022-07-23T00:29:36;101258.56;;;25.24;53.13
41513;BME280;27244;59.940;30.280;2022-07-23T00:32:05;101254.50;;;25.25;52.83
41513;BME280;27244;59.940;30.280;2022-07-23T00:34:32;101257.41;;;25.21;52.69
41513;BME280;27244;59.940;30.280;2022-07-23T00:36:59;101258.56;;;25.24;53.04
41513;BME280;27244;59.940;30.280;2022-07-23T00:39:26;101252.53;;;25.22;52.64
41513;BME280;27244;59.940;30.280;2022-07-23T00:41:53;101252.09;;;25.23;52.78
41513;BME280;27244;59.940;30.280;2022-07-23T00:44:23;101252.91;;;25.24;53.03
41513;BME280;27244;59.940;30.280;2022-07-23T00:46:52;101256.97;;;25.23;52.67
41513;BME280;27244;59.940;30.280;2022-07-23T00:49:21;101255.72;;;25.24;52.62
41513;BME280;27244;59.940;30.280;2022-07-23T00:51:49;101258.19;;;25.22;52.35
41513;BME280;27244;59.940;30.280;2022-07-23T00:54:17;101261.00;;;25.22;52.88
41513;BME280;27244;59.940;30.280;2022-07-23T00:56:45;101262.59;;;25.23;52.91
41513;BME280;27244;59.940;30.280;2022-07-23T00:59:12;101258.56;;;25.24;53.02
41513;BME280;27244;59.940;30.280;2022-07-23T01:01:40;101260.56;;;25.23;52.87
41513;BME280;27244;59.940;30.280;2022-07-23T01:04:09;101251.31;;;25.23;53.34
41513;BME280;27244;59.940;30.280;2022-07-23T01:06:38;101252.91;;;25.24;53.17
41513;BME280;27244;59.940;30.280;2022-07-23T01:09:06;101258.66;;;25.20;53.10
41513;BME280;27244;59.940;30.280;2022-07-23T01:11:34;101261.00;;;25.22;53.28
41513;BME280;27244;59.940;30.280;2022-07-23T01:14:12;101258.88;;;25.26;53.07
41513;BME280;27244;59.940;30.280;2022-07-23T01:16:40;101256.97;;;25.23;53.06
41513;BME280;27244;59.940;30.280;2022-07-23T01:19:08;101261.00;;;25.22;52.92
41513;BME280;27244;59.940;30.280;2022-07-23T01:21:39;101245.22;;;25.24;53.08
41513;BME280;27244;59.940;30.280;2022-07-23T01:24:08;101243.22;;;25.25;52.94
41513;BME280;27244;59.940;30.280;2022-07-23T01:26:42;101245.56;;;25.26;52.74
41513;BME280;27244;59.940;30.280;2022-07-23T01:29:10;101244.78;;;25.26;53.04
41513;BME280;27244;59.940;30.280;2022-07-23T01:31:40;101244.88;;;25.22;52.75
41513;BME280;27244;59.940;30.280;2022-07-23T01:34:07;101238.78;;;25.24;52.83
41513;BME280;27244;59.940;30.280;2022-07-23T01:36:35;101240.47;;;25.21;52.72
41513;BME280;27244;59.940;30.280;2022-07-23T01:39:04;101238.41;;;25.22;52.82
41513;BME280;27244;59.940;30.280;2022-07-23T01:41:33;101245.22;;;25.24;52.93
41513;BME280;27244;59.940;30.280;2022-07-23T01:44:01;101238.78;;;25.24;52.67
41513;BME280;27244;59.940;30.280;2022-07-23T01:46:28;101226.69;;;25.23;52.83
41513;BME280;27244;59.940;30.280;2022-07-23T01:48:56;101237.19;;;25.23;52.91
41513;BME280;27244;59.940;30.280;2022-07-23T01:51:52;101235.97;;;25.24;52.67
41513;BME280;27244;59.940;30.280;2022-07-23T01:54:34;101233.13;;;25.24;53.12
41513;BME280;27244;59.940;30.280;2022-07-23T01:57:05;101235.16;;;25.23;53.07
41513;BME280;27244;59.940;30.280;2022-07-23T01:59:33;101237.66;;;25.21;53.02
41513;BME280;27244;59.940;30.280;2022-07-23T02:02:00;101229.19;;;25.21;52.54
41513;BME280;27244;59.940;30.280;2022-07-23T02:04:30;101229.94;;;25.22;52.59
41513;BME280;27244;59.940;30.280;2022-07-23T02:07:01;101238.00;;;25.23;52.65
41513;BME280;27244;59.940;30.280;2022-07-23T02:09:28;101227.13;;;25.22;52.46
41513;BME280;27244;59.940;30.280;2022-07-23T02:11:55;101232.00;;;25.21;52.96
41513;BME280;27244;59.940;30.280;2022-07-23T02:14:24;101233.13;;;25.24;52.94
41513;BME280;27244;59.940;30.280;2022-07-23T02:16:51;101232.44;;;25.20;52.67
41513;BME280;27244;59.940;30.280;2022-07-23T02:19:19;101224.75;;;25.20;52.82
41513;BME280;27244;59.940;30.280;2022-07-23T02:21:46;101228.72;;;25.23;52.88
41513;BME280;27244;59.940;30.280;2022-07-23T02:24:13;101227.94;;;25.22;52.57
41513;BME280;27244;59.940;30.280;2022-07-23T02:26:41;101215.84;;;25.22;52.72
41513;BME280;27244;59.940;30.280;2022-07-23T02:29:08;101214.28;;;25.21;52.66
41513;BME280;27244;59.940;30.280;2022-07-23T02:31:37;101195.72;;;25.20;52.89
41513;BME280;27244;59.940;30.280;2022-07-23T02:34:05;101208.63;;;25.21;52.89
41513;BME280;27244;59.940;30.280;2022-07-23T02:36:32;101208.97;;;25.23;52.48
41513;BME280;27244;59.940;30.280;2022-07-23T02:39:01;101217.44;;;25.23;52.78
41513;BME280;27244;59.940;30.280;2022-07-23T02:41:30;101202.50;;;25.22;52.54
41513;BME280;27244;59.940;30.280;2022-07-23T02:43:57;101195.63;;;25.23;52.80
41513;BME280;27244;59.940;30.280;2022-07-23T02:46:25;101190.41;;;25.22;52.72
41513;BME280;27244;59.940;30.280;2022-07-23T02:48:54;101192.38;;;25.25;52.47
41513;BME280;27244;59.940;30.280;2022-07-23T02:51:21;101189.19;;;25.23;52.64
41513;BME280;27244;59.940;30.280;2022-07-23T02:53:54;101180.72;;;25.23;52.24
41513;BME280;27244;59.940;30.280;2022-07-23T02:56:21;101180.72;;;25.23;52.67
41513;BME280;27244;59.940;30.280;2022-07-23T02:58:48;101172.72;;;25.21;52.57
41513;BME280;27244;59.940;30.280;2022-07-23T03:01:15;101166.69;;;25.19;52.25
41513;BME280;27244;59.940;30.280;2022-07-23T03:03:45;101165.00;;;25.22;52.22
41513;BME280;27244;59.940;30.280;2022-07-23T03:06:14;101159.38;;;25.22;52.37
41513;BME280;27244;59.940;30.280;2022-07-23T03:08:41;101156.19;;;25.20;52.43
41513;BME280;27244;59.940;30.280;2022-07-23T03:11:08;101164.25;;;25.21;52.18
41513;BME280;27244;59.940;30.280;2022-07-23T03:13:38;101148.97;;;25.19;52.54
41513;BME280;27244;59.940;30.280;2022-07-23T03:16:05;101148.06;;;25.22;52.48
41513;BME280;27244;59.940;30.280;2022-07-23T03:18:35;101148.06;;;25.22;52.69
41513;BME280;27244;59.940;30.280;2022-07-23T03:21:03;101143.22;;;25.22;52.51
41513;BME280;27244;59.940;30.280;2022-07-23T03:23:31;101144.00;;;25.23;52.60
41513;BME280;27244;59.940;30.280;2022-07-23T03:25:59;101143.69;;;25.21;52.51
41513;BME280;27244;59.940;30.280;2022-07-23T03:28:26;101143.69;;;25.21;52.69
41513;BME280;27244;59.940;30.280;2022-07-23T03:30:53;101145.25;;;25.22;52.53
41513;BME280;27244;59.940;30.280;2022-07-23T03:33:21;101149.31;;;25.21;52.42
41513;BME280;27244;59.940;30.280;2022-07-23T03:35:48;101144.47;;;25.21;52.36
41513;BME280;27244;59.940;30.280;2022-07-23T03:38:20;101147.31;;;25.21;52.05
41513;BME280;27244;59.940;30.280;2022-07-23T03:40:48;101152.47;;;25.23;52.56
41513;BME280;27244;59.940;30.280;2022-07-23T03:43:15;101133.63;;;25.20;52.06
41513;BME280;27244;59.940;30.280;2022-07-23T03:45:44;101135.22;;;25.21;52.19
41513;BME280;27244;59.940;30.280;2022-07-23T03:48:11;101135.22;;;25.21;52.03
41513;BME280;27244;59.940;30.280;2022-07-23T03:50:38;101129.56;;;25.21;52.32
41513;BME280;27244;59.940;30.280;2022-07-23T03:53:05;101125.47;;;25.22;52.32
41513;BME280;27244;59.940;30.280;2022-07-23T03:55:34;101129.56;;;25.21;52.00
41513;BME280;27244;59.940;30.280;2022-07-23T03:58:02;101122.66;;;25.22;52.07
41513;BME280;27244;59.940;30.280;2022-07-23T04:00:30;101116.25;;;25.21;52.03
41513;BME280;27244;59.940;30.280;2022-07-23T04:02:57;101119.06;;;25.21;51.97
41513;BME280;27244;59.940;30.280;2022-07-23T04:05:24;101119.06;;;25.21;52.03
41513;BME280;27244;59.940;30.280;2022-07-23T04:07:59;101118.59;;;25.23;52.02
41513;BME280;27244;59.940;30.280;2022-07-23T04:10:26;101126.28;;;25.22;51.97
41513;BME280;27244;59.940;30.280;2022-07-23T04:12:53;101138.38;;;25.23;52.50
41513;BME280;27244;59.940;30.280;2022-07-23T04:15:21;101131.13;;;25.22;52.27
41513;BME280;27244;59.940;30.280;2022-07-23T04:17:48;101129.47;;;25.24;52.36
41513;BME280;27244;59.940;30.280;2022-07-23T04:20:18;101119.41;;;25.23;51.82
41513;BME280;27244;59.940;30.280;2022-07-23T04:22:52;101110.13;;;25.23;52.21
41513;BME280;27244;59.940;30.280;2022-07-23T04:25:20;101110.94;;;25.23;52.06
41513;BME280;27244;59.940;30.280;2022-07-23T04:27:47;101108.53;;;25.22;52.17
41513;BME280;27244;59.940;30.280;2022-07-23T04:30:14;101102.13;;;25.21;51.98
41513;BME280;27244;59.940;30.280;2022-07-23T04:32:43;101109.69;;;25.24;52.03
41513;BME280;27244;59.940;30.280;2022-07-23T04:35:18;101100.06;;;25.22;51.93
41513;BME280;27244;59.940;30.280;2022-07-23T04:37:46;101098.84;;;25.23;51.89
41513;BME280;27244;59.940;30.280;2022-07-23T04:40:14;101086.06;;;25.18;51.96
41513;BME280;27244;59.940;30.280;2022-07-23T04:42:41;101097.25;;;25.22;51.93
41513;BME280;27244;59.940;30.280;2022-07-23T04:45:09;101088.34;;;25.23;52.30
41513;BME280;27244;59.940;30.280;2022-07-23T04:47:36;101084.28;;;25.24;52.02
41513;BME280;27244;59.940;30.280;2022-07-23T04:50:05;101071.72;;;25.25;52.25
41513;BME280;27244;59.940;30.280;2022-07-23T04:52:32;101065.41;;;25.21;52.06
41513;BME280;27244;59.940;30.280;2022-07-23T04:54:59;101069.38;;;25.24;51.99
41513;BME280;27244;59.940;30.280;2022-07-23T04:57:27;101066.56;;;25.24;52.11
41513;BME280;27244;59.940;30.280;2022-07-23T04:59:54;101070.16;;;25.24;51.94
41513;BME280;27244;59.940;30.280;2022-07-23T05:02:21;101066.56;;;25.24;52.03
41513;BME280;27244;59.940;30.280;2022-07-23T05:04:48;101067.34;;;25.24;52.27
41513;BME280;27244;59.940;30.280;2022-07-23T05:07:17;101053.22;;;25.24;52.42
41513;BME280;27244;59.940;30.280;2022-07-23T05:09:44;101053.22;;;25.24;51.90
41513;BME280;27244;59.940;30.280;2022-07-23T05:12:11;101050.84;;;25.23;51.84
41513;BME280;27244;59.940;30.280;2022-07-23T05:14:40;101050.03;;;25.22;52.18
41513;BME280;27244;59.940;30.280;2022-07-23T05:17:07;101048.38;;;25.25;51.92
41513;BME280;27244;59.940;30.280;2022-07-23T05:19:34;101037.94;;;25.22;52.18
41513;BME280;27244;59.940;30.280;2022-07-23T05:22:02;101047.13;;;25.26;51.93
41513;BME280;27244;59.940;30.280;2022-07-23T05:24:30;101043.16;;;25.23;51.92
41513;BME280;27244;59.940;30.280;2022-07-23T05:26:57;101044.75;;;25.24;52.18
41513;BME280;27244;59.940;30.280;2022-07-23T05:29:24;101038.66;;;25.26;52.28
41513;BME280;27244;59.940;30.280;2022-07-23T05:31:51;101048.00;;;25.23;51.99
41513;BME280;27244;59.940;30.280;2022-07-23T05:34:19;101036.41;;;25.21;52.19
41513;BME280;27244;59.940;30.280;2022-07-23T05:36:47;101031.53;;;25.21;52.00
41513;BME280;27244;59.940;30.280;2022-07-23T05:39:14;101034.69;;;25.23;51.93
41513;BME280;27244;59.940;30.280;2022-07-23T05:41:43;101027.03;;;25.24;52.12
41513;BME280;27244;59.940;30.280;2022-07-23T05:44:11;101031.44;;;25.25;51.85
41513;BME280;27244;59.940;30.280;2022-07-23T05:46:40;101024.19;;;25.24;51.92
41513;BME280;27244;59.940;30.280;2022-07-23T05:49:10;101025.78;;;25.25;52.07
41513;BME280;27244;59.940;30.280;2022-07-23T05:52:03;101025.22;;;25.30;52.01
41513;BME280;27244;59.940;30.280;2022-07-23T05:54:46;101020.16;;;25.25;52.21
41513;BME280;27244;59.940;30.280;2022-07-23T05:57:16;101008.84;;;25.25;51.92
41513;BME280;27244;59.940;30.280;2022-07-23T05:59:43;101008.16;;;25.21;51.87
41513;BME280;27244;59.940;30.280;2022-07-23T06:02:10;101009.28;;;25.23;51.73
41513;BME280;27244;59.940;30.280;2022-07-23T06:04:37;101009.28;;;25.23;52.00
41513;BME280;27244;59.940;30.280;2022-07-23T06:07:20;100998.44;;;25.22;52.05
41513;BME280;27244;59.940;30.280;2022-07-23T06:09:48;101002.50;;;25.21;51.90
41513;BME280;27244;59.940;30.280;2022-07-23T06:12:18;101002.84;;;25.23;51.96
41513;BME280;27244;59.940;30.280;2022-07-23T06:14:45;100999.69;;;25.21;51.93
41513;BME280;27244;59.940;30.280;2022-07-23T06:17:15;100989.28;;;25.18;51.98
41513;BME280;27244;59.940;30.280;2022-07-23T06:19:42;100994.03;;;25.21;52.01
41513;BME280;27244;59.940;30.280;2022-07-23T06:22:09;100988.84;;;25.19;52.17
41513;BME280;27244;59.940;30.280;2022-07-23T06:24:36;100984.41;;;25.18;51.99
41513;BME280;27244;59.940;30.280;2022-07-23T06:27:04;100982.75;;;25.21;52.11
41513;BME280;27244;59.940;30.280;2022-07-23T06:29:32;100989.19;;;25.21;52.18
41513;BME280;27244;59.940;30.280;2022-07-23T06:31:59;100981.16;;;25.20;52.00
41513;BME280;27244;59.940;30.280;2022-07-23T06:34:27;100973.03;;;25.22;52.26
41513;BME280;27244;59.940;30.280;2022-07-23T06:36:56;100977.09;;;25.21;52.08
41513;BME280;27244;59.940;30.280;2022-07-23T06:39:25;100977.53;;;25.19;52.13
41513;BME280;27244;59.940;30.280;2022-07-23T06:41:52;100979.56;;;25.19;52.19
41513;BME280;27244;59.940;30.280;2022-07-23T06:44:23;100977.09;;;25.21;52.24
41513;BME280;27244;59.940;30.280;2022-07-23T06:46:52;100971.78;;;25.23;52.28
41513;BME280;27244;59.940;30.280;2022-07-23T06:49:20;100976.31;;;25.20;52.45
41513;BME280;27244;59.940;30.280;2022-07-23T06:51:48;100971.47;;;25.21;52.20
41513;BME280;27244;59.940;30.280;2022-07-23T06:54:15;100969.88;;;25.20;52.24
41513;BME280;27244;59.940;30.280;2022-07-23T06:56:43;100960.97;;;25.21;52.24
41513;BME280;27244;59.940;30.280;2022-07-23T06:59:10;100961.72;;;25.22;52.24
41513;BME280;27244;59.940;30.280;2022-07-23T07:01:37;100958.13;;;25.21;53.14
41513;BME280;27244;59.940;30.280;2022-07-23T07:04:05;100961.50;;;25.29;53.59
41513;BME280;27244;59.940;30.280;2022-07-23T07:06:32;100951.91;;;25.26;52.60
41513;BME280;27244;59.940;30.280;2022-07-23T07:08:59;100957.91;;;25.28;52.14
41513;BME280;27244;59.940;30.280;2022-07-23T07:11:27;100951.13;;;25.26;52.24
41513;BME280;27244;59.940;30.280;2022-07-23T07:13:54;100944.34;;;25.23;52.23
41513;BME280;27244;59.940;30.280;2022-07-23T07:16:21;100942.75;;;25.22;52.19
41513;BME280;27244;59.940;30.280;2022-07-23T07:18:48;100943.91;;;25.25;52.41
41513;BME280;27244;59.940;30.280;2022-07-23T07:21:16;100935.44;;;25.25;52.29
41513;BME280;27244;59.940;30.280;2022-07-23T07:23:43;100952.38;;;25.25;52.54
41513;BME280;27244;59.940;30.280;2022-07-23T07:26:10;100943.91;;;25.25;52.15
41513;BME280;27244;59.940;30.280;2022-07-23T07:28:37;100946.72;;;25.25;52.21
41513;BME280;27244;59.940;30.280;2022-07-23T07:31:04;100941.97;;;25.22;52.20
41513;BME280;27244;59.940;30.280;2022-07-23T07:33:32;100953.50;;;25.27;52.20
41513;BME280;27244;59.940;30.280;2022-07-23T07:35:59;100961.63;;;25.25;52.63
41513;BME280;27244;59.940;30.280;2022-07-23T07:38:27;100945.47;;;25.26;52.98
41513;BME280;27244;59.940;30.280;2022-07-23T07:40:55;100933.84;;;25.24;52.56
41513;BME280;27244;59.940;30.280;2022-07-23T07:43:22;100939.81;;;25.26;52.87
41513;BME280;27244;59.940;30.280;2022-07-23T07:45:49;100948.28;;;25.26;52.91
41513;BME280;27244;59.940;30.280;2022-07-23T07:48:16;100945.81;;;25.28;53.17
41513;BME280;27244;59.940;30.280;2022-07-23T07:50:43;100940.63;;;25.26;53.05
41513;BME280;27244;59.940;30.280;2022-07-23T07:53:10;100939.03;;;25.25;53.09
41513;BME280;27244;59.940;30.280;2022-07-23T07:55:38;100942.53;;;25.29;53.24
41513;BME280;27244;59.940;30.280;2022-07-23T07:58:05;100944.56;;;25.29;53.20
41513;BME280;27244;59.940;30.280;2022-07-23T08:00:32;100946.63;;;25.28;53.22
41513;BME280;27244;59.940;30.280;2022-07-23T08:03:00;100943.00;;;25.28;53.37
41513;BME280;27244;59.940;30.280;2022-07-23T08:05:28;100948.97;;;25.30;53.08
41513;BME280;27244;59.940;30.280;2022-07-23T08:07:57;100943.34;;;25.30;53.31
41513;BME280;27244;59.940;30.280;2022-07-23T08:10:26;100948.97;;;25.30;53.51
41513;BME280;27244;59.940;30.280;2022-07-23T08:12:56;100948.06;;;25.33;53.10
41513;BME280;27244;59.940;30.280;2022-07-23T08:15:24;100951.38;;;25.31;53.55
41513;BME280;27244;59.940;30.280;2022-07-23T08:17:52;100947.75;;;25.31;53.61
41513;BME280;27244;59.940;30.280;2022-07-23T08:20:21;100947.63;;;25.34;53.65
41513;BME280;27244;59.940;30.280;2022-07-23T08:22:50;100948.44;;;25.35;53.28
41513;BME280;27244;59.940;30.280;2022-07-23T08:25:20;100948.31;;;25.38;53.38
41513;BME280;27244;59.940;30.280;2022-07-23T08:27:48;100931.81;;;25.37;53.47
41513;BME280;27244;59.940;30.280;2022-07-23T08:30:17;100942.66;;;25.38;53.44
41513;BME280;27244;59.940;30.280;2022-07-23T08:32:49;100940.16;;;25.40;53.48
41513;BME280;27244;59.940;30.280;2022-07-23T08:35:17;100937.81;;;25.39;53.65
41513;BME280;27244;59.940;30.280;2022-07-23T08:37:45;100938.56;;;25.39;53.91
41513;BME280;27244;59.940;30.280;2022-07-23T08:40:12;100935.31;;;25.41;53.95
41513;BME280;27244;59.940;30.280;2022-07-23T08:42:39;100944.16;;;25.43;53.53
41513;BME280;27244;59.940;30.280;2022-07-23T08:45:08;100939.25;;;25.43;53.68
41513;BME280;27244;59.940;30.280;2022-07-23T08:47:38;100939.25;;;25.43;53.72
41513;BME280;27244;59.940;30.280;2022-07-23T08:50:07;100938.03;;;25.44;53.34
41513;BME280;27244;59.940;30.280;2022-07-23T08:52:36;100931.59;;;25.44;53.46
41513;BME280;27244;59.940;30.280;2022-07-23T08:55:04;100938.81;;;25.45;53.46
41513;BME280;27244;59.940;30.280;2022-07-23T08:57:31;100925.59;;;25.42;53.20
41513;BME280;27244;59.940;30.280;2022-07-23T08:59:58;100929.22;;;25.42;53.23
41513;BME280;27244;59.940;30.280;2022-07-23T09:02:25;100937.59;;;25.46;53.04
41513;BME280;27244;59.940;30.280;2022-07-23T09:04:53;100922.19;;;25.47;53.39
41513;BME280;27244;59.940;30.280;2022-07-23T09:07:20;100927.53;;;25.45;53.26
41513;BME280;27244;59.940;30.280;2022-07-23T09:10:04;100928.44;;;25.55;53.34
41513;BME280;27244;59.940;30.280;2022-07-23T09:12:32;100926.63;;;25.48;53.23
41513;BME280;27244;59.940;30.280;2022-07-23T09:15:03;100926.53;;;25.52;53.53
41513;BME280;27244;59.940;30.280;2022-07-23T09:17:39;100920.44;;;25.53;53.39
41513;BME280;27244;59.940;30.280;2022-07-23T09:20:15;100917.94;;;25.55;53.24
41513;BME280;27244;59.940;30.280;2022-07-23T09:22:45;100921.69;;;25.52;53.14
41513;BME280;27244;59.940;30.280;2022-07-23T09:25:14;100916.44;;;25.51;53.24
41513;BME280;27244;59.940;30.280;2022-07-23T09:27:47;100910.25;;;25.56;52.81
41513;BME280;27244;59.940;30.280;2022-07-23T09:30:15;100916.03;;;25.52;52.74
41513;BME280;27244;59.940;30.280;2022-07-23T09:32:42;100907.56;;;25.52;52.96
41513;BME280;27244;59.940;30.280;2022-07-23T09:35:09;100906.31;;;25.53;52.88
41513;BME280;27244;59.940;30.280;2022-07-23T09:37:38;100916.81;;;25.53;52.95
41513;BME280;27244;59.940;30.280;2022-07-23T09:40:07;100904.28;;;25.54;52.65
41513;BME280;27244;59.940;30.280;2022-07-23T09:42:35;100896.56;;;25.54;52.94
41513;BME280;27244;59.940;30.280;2022-07-23T09:45:02;100899.75;;;25.56;52.85
41513;BME280;27244;59.940;30.280;2022-07-23T09:47:31;100904.16;;;25.57;52.65
41513;BME280;27244;59.940;30.280;2022-07-23T09:50:00;100911.38;;;25.58;52.73
41513;BME280;27244;59.940;30.280;2022-07-23T09:52:28;100902.91;;;25.58;52.49
41513;BME280;27244;59.940;30.280;2022-07-23T09:55:00;100901.53;;;25.63;52.57
41513;BME280;27244;59.940;30.280;2022-07-23T09:57:28;100897.25;;;25.58;52.84
41513;BME280;27244;59.940;30.280;2022-07-23T10:00:00;100891.16;;;25.60;52.47
41513;BME280;27244;59.940;30.280;2022-07-23T10:02:31;100888.66;;;25.62;52.65
41513;BME280;27244;59.940;30.280;2022-07-23T10:05:18;100879.88;;;25.60;52.54
41513;BME280;27244;59.940;30.280;2022-07-23T10:08:07;100886.63;;;25.62;52.57
41513;BME280;27244;59.940;30.280;2022-07-23T10:10:55;100877.34;;;25.62;53.03
41513;BME280;27244;59.940;30.280;2022-07-23T10:13:25;100868.63;;;25.81;52.30
41513;BME280;27244;59.940;30.280;2022-07-23T10:16:10;100869.34;;;25.60;52.47
41513;BME280;27244;59.940;30.280;2022-07-23T10:18:37;100869.34;;;25.60;52.56
41513;BME280;27244;59.940;30.280;2022-07-23T10:21:06;100860.53;;;25.58;52.02
41513;BME280;27244;59.940;30.280;2022-07-23T10:23:39;100870.91;;;25.61;51.88
41513;BME280;27244;59.940;30.280;2022-07-23T10:26:14;100868.09;;;25.61;51.63
41513;BME280;27244;59.940;30.280;2022-07-23T10:29:02;100856.22;;;25.66;51.95
41513;BME280;27244;59.940;30.280;2022-07-23T10:31:41;100859.97;;;25.63;51.67
41513;BME280;27244;59.940;30.280;2022-07-23T10:34:19;100861.56;;;25.64;51.63
41513;BME280;27244;59.940;30.280;2022-07-23T10:36:52;100866.19;;;25.58;51.64
41513;BME280;27244;59.940;30.280;2022-07-23T10:39:24;100869.69;;;25.62;51.68
41513;BME280;27244;59.940;30.280;2022-07-23T10:42:07;100863.91;;;25.66;51.52
41513;BME280;27244;59.940;30.280;2022-07-23T10:44:38;100868.09;;;25.61;51.45
41513;BME280;27244;59.940;30.280;2022-07-23T10:47:06;100858.19;;;25.57;51.68
41513;BME280;27244;59.940;30.280;2022-07-23T10:49:50;100862.91;;;25.60;51.40
41513;BME280;27244;59.940;30.280;2022-07-23T10:52:18;100880.66;;;25.60;51.39
41513;BME280;27244;59.940;30.280;2022-07-23T10:54:48;100868.22;;;25.58;51.45
41513;BME280;27244;59.940;30.280;2022-07-23T10:57:18;100868.09;;;25.61;52.15
41513;BME280;27244;59.940;30.280;2022-07-23T11:00:15;100878.25;;;25.71;51.53
41513;BME280;27244;59.940;30.280;2022-07-23T11:02:45;100886.31;;;25.60;51.40
41513;BME280;27244;59.940;30.280;2022-07-23T11:05:14;100875.91;;;25.57;51.58
41513;BME280;27244;59.940;30.280;2022-07-23T11:10:53;100872.19;;;25.60;52.36
41513;BME280;27244;59.940;30.280;2022-07-23T11:13:44;100870.22;;;25.70;51.63
41513;BME280;27244;59.940;30.280;2022-07-23T11:16:20;100900.75;;;25.62;52.26
41513;BME280;27244;59.940;30.280;2022-07-23T11:19:05;100913.53;;;25.67;52.36
41513;BME280;27244;59.940;30.280;2022-07-23T11:21:49;100915.13;;;25.68;51.91
41513;BME280;27244;59.940;30.280;2022-07-23T11:24:20;100923.16;;;25.57;52.54
41513;BME280;27244;59.940;30.280;2022-07-23T11:26:57;100935.00;;;25.64;52.36
41513;BME280;27244;59.940;30.280;2022-07-23T11:29:48;100934.41;;;25.69;52.16
41513;BME280;27244;59.940;30.280;2022-07-23T11:32:33;100937.03;;;25.64;52.71
41513;BME280;27244;59.940;30.280;2022-07-23T11:35:03;100926.41;;;25.55;52.70
41513;BME280;27244;59.940;30.280;2022-07-23T11:37:35;100930.25;;;25.61;52.70
41513;BME280;27244;59.940;30.280;2022-07-23T11:40:06;100922.25;;;25.60;53.13
41513;BME280;27244;59.940;30.280;2022-07-23T11:42:35;100917.38;;;25.60;52.99
41513;BME280;27244;59.940;30.280;2022-07-23T11:45:06;100922.25;;;25.60;52.91
41513;BME280;27244;59.940;30.280;2022-07-23T11:47:34;100930.72;;;25.60;53.13
41513;BME280;27244;59.940;30.280;2022-07-23T11:50:05;100944.03;;;25.59;53.33
41513;BME280;27244;59.940;30.280;2022-07-23T11:52:32;100948.00;;;25.62;53.56
41513;BME280;27244;59.940;30.280;2022-07-23T11:55:01;100945.97;;;25.62;53.39
41513;BME280;27244;59.940;30.280;2022-07-23T11:57:29;100933.53;;;25.60;53.26
41513;BME280;27244;59.940;30.280;2022-07-23T12:00:00;100948.47;;;25.60;53.12
41513;BME280;27244;59.940;30.280;2022-07-23T12:02:39;100963.38;;;25.61;53.36
41513;BME280;27244;59.940;30.280;2022-07-23T12:05:08;100952.53;;;25.59;53.32
41513;BME280;27244;59.940;30.280;2022-07-23T12:07:40;100944.94;;;25.56;53.17
41513;BME280;27244;59.940;30.280;2022-07-23T12:10:14;100960.09;;;25.62;53.22
41513;BME280;27244;59.940;30.280;2022-07-23T12:12:43;100967.09;;;25.58;53.49
41513;BME280;27244;59.940;30.280;2022-07-23T12:15:11;100979.28;;;25.55;53.78
41513;BME280;27244;59.940;30.280;2022-07-23T12:17:43;100977.72;;;25.66;53.39
41513;BME280;27244;59.940;30.280;2022-07-23T12:20:12;100963.34;;;25.86;52.66
41513;BME280;27244;59.940;30.280;2022-07-23T12:22:42;100953.53;;;25.65;53.46
41513;BME280;27244;59.940;30.280;2022-07-23T12:25:11;100947.53;;;25.63;53.68
41513;BME280;27244;59.940;30.280;2022-07-23T12:27:38;100938.72;;;25.61;53.44
41513;BME280;27244;59.940;30.280;2022-07-23T12:30:20;100907.19;;;25.63;53.20
41513;BME280;27244;59.940;30.280;2022-07-23T12:32:50;100909.59;;;25.64;53.36
41513;BME280;27244;59.940;30.280;2022-07-23T12:35:18;100918.50;;;25.63;53.56
41513;BME280;27244;59.940;30.280;2022-07-23T12:37:47;100932.19;;;25.64;53.98
41513;BME280;27244;59.940;30.280;2022-07-23T12:40:26;100917.03;;;25.71;53.37
41513;BME280;27244;59.940;30.280;2022-07-23T12:42:57;100918.72;;;25.68;53.76
41513;BME280;27244;59.940;30.280;2022-07-23T12:45:26;100911.16;;;25.65;53.96
41513;BME280;27244;59.940;30.280;2022-07-23T12:48:01;100898.03;;;25.71;54.02
41513;BME280;27244;59.940;30.280;2022-07-23T12:50:38;100883.91;;;25.71;54.14
41513;BME280;27244;59.940;30.280;2022-07-23T12:53:07;100889.34;;;25.66;54.25
41513;BME280;27244;59.940;30.280;2022-07-23T12:55:36;100890.59;;;25.65;53.96